Grenola, Kansas
Current Conditions -  °F | °C
As of 3:54 PM on Monday 20 Oct 2014 (Local Time) from KWLD Reporting Station
Clear Clear  
Wind Chill: 80°   Ceiling: Unl
Heat Index: 80°   Visibility: 10mi
Dew Point: 51°   Wind: 7mph
Humidity: 36%   Direction: NA
Pressure: 30.03"   Gusts: NA
Location:  37.35°N, 96.45°W
Report Text: KWLD 202054Z AUTO VRB06KT 10SM CLR 27/11 A3003 RMK AO2 SLP159 T02670106 56013
Loading
Personal Weather Stations






























Interactive Weather Map
Tropical Storm Tracking
New forecast layout! Learn more

10-Day Weather Forecast

Advertisements
Track Severe Weather on mobile